sensor_id;sensor_type;location;lat;lon;timestamp;P1;durP1;ratioP1;P2;durP2;ratioP2
30998;SDS011;20549;50.042;8.968;2023-08-06T00:01:02;2.58;;;2.37;;
30998;SDS011;20549;50.042;8.968;2023-08-06T00:03:28;2.55;;;2.40;;
30998;SDS011;20549;50.042;8.968;2023-08-06T00:05:55;3.00;;;2.80;;
30998;SDS011;20549;50.042;8.968;2023-08-06T00:08:21;2.80;;;2.60;;
30998;SDS011;20549;50.042;8.968;2023-08-06T00:10:48;2.55;;;2.35;;
30998;SDS011;20549;50.042;8.968;2023-08-06T00:13:15;2.67;;;2.47;;
30998;SDS011;20549;50.042;8.968;2023-08-06T00:15:41;2.85;;;2.65;;
30998;SDS011;20549;50.042;8.968;2023-08-06T00:18:08;2.72;;;2.40;;
30998;SDS011;20549;50.042;8.968;2023-08-06T00:20:34;3.37;;;2.62;;
30998;SDS011;20549;50.042;8.968;2023-08-06T00:23:01;2.52;;;2.15;;
30998;SDS011;20549;50.042;8.968;2023-08-06T00:25:28;2.25;;;2.15;;
30998;SDS011;20549;50.042;8.968;2023-08-06T00:27:54;2.50;;;2.30;;
30998;SDS011;20549;50.042;8.968;2023-08-06T00:30:21;2.58;;;2.37;;
30998;SDS011;20549;50.042;8.968;2023-08-06T00:32:47;2.40;;;2.22;;
30998;SDS011;20549;50.042;8.968;2023-08-06T00:35:14;2.30;;;2.20;;
30998;SDS011;20549;50.042;8.968;2023-08-06T00:37:40;2.67;;;2.40;;
30998;SDS011;20549;50.042;8.968;2023-08-06T00:40:07;2.60;;;2.40;;
30998;SDS011;20549;50.042;8.968;2023-08-06T00:42:34;3.25;;;2.58;;
30998;SDS011;20549;50.042;8.968;2023-08-06T00:45:00;3.72;;;2.52;;
30998;SDS011;20549;50.042;8.968;2023-08-06T00:47:27;2.45;;;2.25;;
30998;SDS011;20549;50.042;8.968;2023-08-06T00:49:53;2.60;;;2.40;;
30998;SDS011;20549;50.042;8.968;2023-08-06T00:52:20;2.42;;;2.25;;
30998;SDS011;20549;50.042;8.968;2023-08-06T00:54:47;2.50;;;2.02;;
30998;SDS011;20549;50.042;8.968;2023-08-06T00:57:13;2.20;;;2.10;;
30998;SDS011;20549;50.042;8.968;2023-08-06T00:59:40;3.70;;;2.45;;
30998;SDS011;20549;50.042;8.968;2023-08-06T01:02:06;3.45;;;2.40;;
30998;SDS011;20549;50.042;8.968;2023-08-06T01:04:33;2.55;;;2.35;;
30998;SDS011;20549;50.042;8.968;2023-08-06T01:09:54;2.70;;;2.50;;
30998;SDS011;20549;50.042;8.968;2023-08-06T01:12:25;2.58;;;2.35;;
30998;SDS011;20549;50.042;8.968;2023-08-06T01:15:11;2.60;;;2.40;;
30998;SDS011;20549;50.042;8.968;2023-08-06T01:17:37;2.55;;;2.35;;
30998;SDS011;20549;50.042;8.968;2023-08-06T01:20:03;2.50;;;2.30;;
30998;SDS011;20549;50.042;8.968;2023-08-06T01:22:30;3.00;;;2.08;;
30998;SDS011;20549;50.042;8.968;2023-08-06T01:24:57;2.60;;;2.40;;
30998;SDS011;20549;50.042;8.968;2023-08-06T01:27:25;3.62;;;2.70;;
30998;SDS011;20549;50.042;8.968;2023-08-06T01:29:56;5.83;;;2.80;;
30998;SDS011;20549;50.042;8.968;2023-08-06T01:32:28;2.30;;;2.12;;
30998;SDS011;20549;50.042;8.968;2023-08-06T01:34:55;2.60;;;2.40;;
30998;SDS011;20549;50.042;8.968;2023-08-06T01:37:21;2.15;;;2.02;;
30998;SDS011;20549;50.042;8.968;2023-08-06T01:39:48;2.15;;;2.05;;
30998;SDS011;20549;50.042;8.968;2023-08-06T01:42:14;4.45;;;2.52;;
30998;SDS011;20549;50.042;8.968;2023-08-06T01:44:41;2.77;;;2.58;;
30998;SDS011;20549;50.042;8.968;2023-08-06T01:47:08;2.62;;;2.42;;
30998;SDS011;20549;50.042;8.968;2023-08-06T01:49:34;2.72;;;2.52;;
30998;SDS011;20549;50.042;8.968;2023-08-06T01:52:01;2.90;;;2.42;;
30998;SDS011;20549;50.042;8.968;2023-08-06T01:54:27;2.70;;;2.50;;
30998;SDS011;20549;50.042;8.968;2023-08-06T01:56:54;3.67;;;2.50;;
30998;SDS011;20549;50.042;8.968;2023-08-06T01:59:21;2.60;;;2.40;;
30998;SDS011;20549;50.042;8.968;2023-08-06T02:01:47;2.40;;;2.27;;
30998;SDS011;20549;50.042;8.968;2023-08-06T02:04:14;3.40;;;2.45;;
30998;SDS011;20549;50.042;8.968;2023-08-06T02:06:40;2.33;;;2.20;;
30998;SDS011;20549;50.042;8.968;2023-08-06T02:09:07;2.62;;;2.42;;
30998;SDS011;20549;50.042;8.968;2023-08-06T02:11:33;3.35;;;2.20;;
30998;SDS011;20549;50.042;8.968;2023-08-06T02:14:00;3.80;;;2.40;;
30998;SDS011;20549;50.042;8.968;2023-08-06T02:16:27;2.55;;;2.35;;
30998;SDS011;20549;50.042;8.968;2023-08-06T02:18:53;2.92;;;2.65;;
30998;SDS011;20549;50.042;8.968;2023-08-06T02:21:20;2.70;;;2.50;;
30998;SDS011;20549;50.042;8.968;2023-08-06T02:23:46;2.47;;;2.27;;
30998;SDS011;20549;50.042;8.968;2023-08-06T02:26:13;3.25;;;2.95;;
30998;SDS011;20549;50.042;8.968;2023-08-06T02:28:40;2.72;;;2.22;;
30998;SDS011;20549;50.042;8.968;2023-08-06T02:31:06;3.33;;;2.60;;
30998;SDS011;20549;50.042;8.968;2023-08-06T02:33:33;2.47;;;2.27;;
30998;SDS011;20549;50.042;8.968;2023-08-06T02:36:00;2.50;;;2.30;;
30998;SDS011;20549;50.042;8.968;2023-08-06T02:38:26;2.75;;;2.55;;
30998;SDS011;20549;50.042;8.968;2023-08-06T02:40:53;2.10;;;1.90;;
30998;SDS011;20549;50.042;8.968;2023-08-06T02:43:19;2.17;;;2.00;;
30998;SDS011;20549;50.042;8.968;2023-08-06T02:45:46;2.47;;;2.27;;
30998;SDS011;20549;50.042;8.968;2023-08-06T02:48:12;2.15;;;1.98;;
30998;SDS011;20549;50.042;8.968;2023-08-06T02:50:39;3.70;;;2.40;;
30998;SDS011;20549;50.042;8.968;2023-08-06T02:53:06;2.10;;;2.00;;
30998;SDS011;20549;50.042;8.968;2023-08-06T02:55:32;2.42;;;2.22;;
30998;SDS011;20549;50.042;8.968;2023-08-06T02:57:59;2.35;;;2.15;;
30998;SDS011;20549;50.042;8.968;2023-08-06T03:00:25;3.08;;;2.35;;
30998;SDS011;20549;50.042;8.968;2023-08-06T03:02:52;3.37;;;2.33;;
30998;SDS011;20549;50.042;8.968;2023-08-06T03:05:18;2.37;;;2.17;;
30998;SDS011;20549;50.042;8.968;2023-08-06T03:07:45;6.92;;;3.20;;
30998;SDS011;20549;50.042;8.968;2023-08-06T03:10:12;1.82;;;1.72;;
30998;SDS011;20549;50.042;8.968;2023-08-06T03:12:38;2.80;;;2.10;;
30998;SDS011;20549;50.042;8.968;2023-08-06T03:15:05;3.08;;;2.77;;
30998;SDS011;20549;50.042;8.968;2023-08-06T03:17:32;2.83;;;2.00;;
30998;SDS011;20549;50.042;8.968;2023-08-06T03:19:58;2.27;;;2.15;;
30998;SDS011;20549;50.042;8.968;2023-08-06T03:22:25;2.50;;;2.30;;
30998;SDS011;20549;50.042;8.968;2023-08-06T03:24:51;2.98;;;2.52;;
30998;SDS011;20549;50.042;8.968;2023-08-06T03:27:18;2.58;;;2.30;;
30998;SDS011;20549;50.042;8.968;2023-08-06T03:29:44;2.25;;;2.12;;
30998;SDS011;20549;50.042;8.968;2023-08-06T03:32:11;2.33;;;2.12;;
30998;SDS011;20549;50.042;8.968;2023-08-06T03:34:38;2.47;;;2.27;;
30998;SDS011;20549;50.042;8.968;2023-08-06T03:37:04;2.00;;;1.90;;
30998;SDS011;20549;50.042;8.968;2023-08-06T03:39:31;1.98;;;1.87;;
30998;SDS011;20549;50.042;8.968;2023-08-06T03:41:57;1.92;;;1.82;;
30998;SDS011;20549;50.042;8.968;2023-08-06T03:44:24;2.77;;;2.08;;
30998;SDS011;20549;50.042;8.968;2023-08-06T03:46:51;1.90;;;1.80;;
30998;SDS011;20549;50.042;8.968;2023-08-06T03:49:17;2.08;;;1.87;;
30998;SDS011;20549;50.042;8.968;2023-08-06T03:51:44;2.33;;;2.12;;
30998;SDS011;20549;50.042;8.968;2023-08-06T03:54:10;2.20;;;2.10;;
30998;SDS011;20549;50.042;8.968;2023-08-06T03:56:37;2.33;;;2.10;;
30998;SDS011;20549;50.042;8.968;2023-08-06T03:59:04;2.00;;;1.90;;
30998;SDS011;20549;50.042;8.968;2023-08-06T04:01:30;2.77;;;2.08;;
30998;SDS011;20549;50.042;8.968;2023-08-06T04:03:57;4.53;;;2.00;;
30998;SDS011;20549;50.042;8.968;2023-08-06T04:06:23;1.98;;;1.87;;
30998;SDS011;20549;50.042;8.968;2023-08-06T04:08:50;1.87;;;1.77;;
30998;SDS011;20549;50.042;8.968;2023-08-06T04:11:16;2.30;;;2.10;;
30998;SDS011;20549;50.042;8.968;2023-08-06T04:13:43;2.33;;;2.10;;
30998;SDS011;20549;50.042;8.968;2023-08-06T04:16:10;2.10;;;1.95;;
30998;SDS011;20549;50.042;8.968;2023-08-06T04:18:36;2.02;;;1.85;;
30998;SDS011;20549;50.042;8.968;2023-08-06T04:21:03;2.30;;;2.10;;
30998;SDS011;20549;50.042;8.968;2023-08-06T04:23:29;3.92;;;2.17;;
30998;SDS011;20549;50.042;8.968;2023-08-06T04:25:56;2.50;;;2.30;;
30998;SDS011;20549;50.042;8.968;2023-08-06T04:28:23;2.72;;;1.77;;
30998;SDS011;20549;50.042;8.968;2023-08-06T04:30:49;3.60;;;2.30;;
30998;SDS011;20549;50.042;8.968;2023-08-06T04:33:16;4.45;;;1.98;;
30998;SDS011;20549;50.042;8.968;2023-08-06T04:35:42;3.58;;;2.10;;
30998;SDS011;20549;50.042;8.968;2023-08-06T04:38:09;3.10;;;2.00;;
30998;SDS011;20549;50.042;8.968;2023-08-06T04:40:36;2.45;;;2.25;;
30998;SDS011;20549;50.042;8.968;2023-08-06T04:43:02;2.25;;;2.00;;
30998;SDS011;20549;50.042;8.968;2023-08-06T04:45:29;2.47;;;1.80;;
30998;SDS011;20549;50.042;8.968;2023-08-06T04:47:55;1.92;;;1.80;;
30998;SDS011;20549;50.042;8.968;2023-08-06T04:50:22;2.20;;;1.80;;
30998;SDS011;20549;50.042;8.968;2023-08-06T04:52:48;2.00;;;1.82;;
30998;SDS011;20549;50.042;8.968;2023-08-06T04:55:15;2.40;;;1.80;;
30998;SDS011;20549;50.042;8.968;2023-08-06T04:57:42;2.45;;;1.87;;
30998;SDS011;20549;50.042;8.968;2023-08-06T05:00:08;2.05;;;1.70;;
30998;SDS011;20549;50.042;8.968;2023-08-06T05:02:35;1.50;;;1.40;;
30998;SDS011;20549;50.042;8.968;2023-08-06T05:05:01;2.15;;;1.95;;
30998;SDS011;20549;50.042;8.968;2023-08-06T05:07:31;2.50;;;1.50;;
30998;SDS011;20549;50.042;8.968;2023-08-06T05:09:55;2.37;;;1.40;;
30998;SDS011;20549;50.042;8.968;2023-08-06T05:12:21;2.30;;;1.70;;
30998;SDS011;20549;50.042;8.968;2023-08-06T05:14:48;1.65;;;1.55;;
30998;SDS011;20549;50.042;8.968;2023-08-06T05:17:14;2.00;;;1.80;;
30998;SDS011;20549;50.042;8.968;2023-08-06T05:19:41;2.05;;;1.87;;
30998;SDS011;20549;50.042;8.968;2023-08-06T05:22:08;3.37;;;1.65;;
30998;SDS011;20549;50.042;8.968;2023-08-06T05:24:34;2.00;;;1.90;;
30998;SDS011;20549;50.042;8.968;2023-08-06T05:27:01;2.85;;;1.80;;
30998;SDS011;20549;50.042;8.968;2023-08-06T05:29:27;1.82;;;1.72;;
30998;SDS011;20549;50.042;8.968;2023-08-06T05:31:54;1.72;;;1.60;;
30998;SDS011;20549;50.042;8.968;2023-08-06T05:34:21;1.70;;;1.60;;
30998;SDS011;20549;50.042;8.968;2023-08-06T05:36:47;1.75;;;1.62;;
30998;SDS011;20549;50.042;8.968;2023-08-06T05:39:14;3.10;;;1.80;;
30998;SDS011;20549;50.042;8.968;2023-08-06T05:41:40;1.72;;;1.50;;
30998;SDS011;20549;50.042;8.968;2023-08-06T05:44:07;2.00;;;1.57;;
30998;SDS011;20549;50.042;8.968;2023-08-06T05:46:33;2.77;;;1.95;;
30998;SDS011;20549;50.042;8.968;2023-08-06T05:49:00;3.40;;;1.47;;
30998;SDS011;20549;50.042;8.968;2023-08-06T05:51:27;2.72;;;1.55;;
30998;SDS011;20549;50.042;8.968;2023-08-06T05:53:53;1.52;;;1.40;;
30998;SDS011;20549;50.042;8.968;2023-08-06T05:56:20;1.65;;;1.40;;
30998;SDS011;20549;50.042;8.968;2023-08-06T05:58:46;2.02;;;1.30;;
30998;SDS011;20549;50.042;8.968;2023-08-06T06:01:13;2.25;;;1.60;;
30998;SDS011;20549;50.042;8.968;2023-08-06T06:03:40;1.67;;;1.27;;
30998;SDS011;20549;50.042;8.968;2023-08-06T06:06:06;1.32;;;1.10;;
30998;SDS011;20549;50.042;8.968;2023-08-06T06:08:33;1.92;;;1.57;;
30998;SDS011;20549;50.042;8.968;2023-08-06T06:10:59;1.85;;;1.22;;
30998;SDS011;20549;50.042;8.968;2023-08-06T06:13:26;1.85;;;1.00;;
30998;SDS011;20549;50.042;8.968;2023-08-06T06:15:55;1.75;;;1.02;;
30998;SDS011;20549;50.042;8.968;2023-08-06T06:18:22;1.07;;;0.95;;
30998;SDS011;20549;50.042;8.968;2023-08-06T06:20:49;0.90;;;0.90;;
30998;SDS011;20549;50.042;8.968;2023-08-06T06:23:15;0.80;;;0.80;;
30998;SDS011;20549;50.042;8.968;2023-08-06T06:25:43;1.02;;;0.93;;
30998;SDS011;20549;50.042;8.968;2023-08-06T06:28:15;2.47;;;0.80;;
30998;SDS011;20549;50.042;8.968;2023-08-06T06:30:41;1.80;;;0.90;;
30998;SDS011;20549;50.042;8.968;2023-08-06T06:33:08;1.27;;;0.90;;
30998;SDS011;20549;50.042;8.968;2023-08-06T06:35:34;0.90;;;0.90;;
30998;SDS011;20549;50.042;8.968;2023-08-06T06:38:01;1.20;;;1.10;;
30998;SDS011;20549;50.042;8.968;2023-08-06T06:40:28;1.00;;;1.00;;
30998;SDS011;20549;50.042;8.968;2023-08-06T06:42:54;0.82;;;0.82;;
30998;SDS011;20549;50.042;8.968;2023-08-06T06:45:21;1.02;;;0.93;;
30998;SDS011;20549;50.042;8.968;2023-08-06T06:47:47;0.95;;;0.95;;
30998;SDS011;20549;50.042;8.968;2023-08-06T06:50:14;0.70;;;0.70;;
30998;SDS011;20549;50.042;8.968;2023-08-06T06:52:41;1.35;;;0.88;;
30998;SDS011;20549;50.042;8.968;2023-08-06T06:55:07;0.78;;;0.78;;
30998;SDS011;20549;50.042;8.968;2023-08-06T06:57:34;1.22;;;0.82;;
30998;SDS011;20549;50.042;8.968;2023-08-06T07:00:00;0.47;;;0.47;;
30998;SDS011;20549;50.042;8.968;2023-08-06T07:02:27;2.55;;;0.90;;
30998;SDS011;20549;50.042;8.968;2023-08-06T07:04:53;0.72;;;0.72;;
30998;SDS011;20549;50.042;8.968;2023-08-06T07:07:20;0.95;;;0.80;;
30998;SDS011;20549;50.042;8.968;2023-08-06T07:09:47;0.98;;;0.85;;
30998;SDS011;20549;50.042;8.968;2023-08-06T07:12:13;0.72;;;0.68;;
30998;SDS011;20549;50.042;8.968;2023-08-06T07:14:40;0.85;;;0.80;;
30998;SDS011;20549;50.042;8.968;2023-08-06T07:17:06;0.55;;;0.55;;
30998;SDS011;20549;50.042;8.968;2023-08-06T07:19:33;0.42;;;0.42;;
30998;SDS011;20549;50.042;8.968;2023-08-06T07:22:00;0.70;;;0.70;;
30998;SDS011;20549;50.042;8.968;2023-08-06T07:24:26;0.82;;;0.82;;
30998;SDS011;20549;50.042;8.968;2023-08-06T07:26:53;0.62;;;0.62;;
30998;SDS011;20549;50.042;8.968;2023-08-06T07:29:19;0.62;;;0.62;;
30998;SDS011;20549;50.042;8.968;2023-08-06T07:31:46;0.70;;;0.70;;
30998;SDS011;20549;50.042;8.968;2023-08-06T07:34:12;0.70;;;0.70;;
30998;SDS011;20549;50.042;8.968;2023-08-06T07:36:39;0.50;;;0.50;;
30998;SDS011;20549;50.042;8.968;2023-08-06T07:39:06;1.87;;;0.98;;
30998;SDS011;20549;50.042;8.968;2023-08-06T07:41:32;0.68;;;0.30;;
30998;SDS011;20549;50.042;8.968;2023-08-06T07:43:59;1.10;;;0.47;;
30998;SDS011;20549;50.042;8.968;2023-08-06T07:46:25;0.82;;;0.40;;
30998;SDS011;20549;50.042;8.968;2023-08-06T07:48:52;0.30;;;0.30;;
30998;SDS011;20549;50.042;8.968;2023-08-06T07:51:19;0.40;;;0.40;;
30998;SDS011;20549;50.042;8.968;2023-08-06T07:53:45;0.82;;;0.40;;
30998;SDS011;20549;50.042;8.968;2023-08-06T07:56:12;0.50;;;0.50;;
30998;SDS011;20549;50.042;8.968;2023-08-06T07:58:38;0.40;;;0.40;;
30998;SDS011;20549;50.042;8.968;2023-08-06T08:01:05;1.67;;;0.57;;
30998;SDS011;20549;50.042;8.968;2023-08-06T08:03:32;2.17;;;0.50;;
30998;SDS011;20549;50.042;8.968;2023-08-06T08:05:58;0.50;;;0.50;;
30998;SDS011;20549;50.042;8.968;2023-08-06T08:08:25;1.65;;;0.60;;
30998;SDS011;20549;50.042;8.968;2023-08-06T08:10:51;0.50;;;0.50;;
30998;SDS011;20549;50.042;8.968;2023-08-06T08:13:18;0.40;;;0.40;;
30998;SDS011;20549;50.042;8.968;2023-08-06T08:15:44;0.30;;;0.30;;
30998;SDS011;20549;50.042;8.968;2023-08-06T08:18:11;0.23;;;0.23;;
30998;SDS011;20549;50.042;8.968;2023-08-06T08:20:40;0.20;;;0.20;;
30998;SDS011;20549;50.042;8.968;2023-08-06T08:23:07;0.33;;;0.33;;
30998;SDS011;20549;50.042;8.968;2023-08-06T08:25:34;0.40;;;0.40;;
30998;SDS011;20549;50.042;8.968;2023-08-06T08:28:00;0.30;;;0.30;;
30998;SDS011;20549;50.042;8.968;2023-08-06T08:30:27;0.40;;;0.40;;
30998;SDS011;20549;50.042;8.968;2023-08-06T08:32:53;0.37;;;0.37;;
30998;SDS011;20549;50.042;8.968;2023-08-06T08:35:20;0.68;;;0.47;;
30998;SDS011;20549;50.042;8.968;2023-08-06T08:37:47;0.88;;;0.72;;
30998;SDS011;20549;50.042;8.968;2023-08-06T08:40:14;0.82;;;0.82;;
30998;SDS011;20549;50.042;8.968;2023-08-06T08:42:40;0.50;;;0.50;;
30998;SDS011;20549;50.042;8.968;2023-08-06T08:45:08;1.00;;;1.00;;
30998;SDS011;20549;50.042;8.968;2023-08-06T08:47:33;0.75;;;0.65;;
30998;SDS011;20549;50.042;8.968;2023-08-06T08:50:00;1.60;;;1.15;;
30998;SDS011;20549;50.042;8.968;2023-08-06T08:52:26;0.62;;;0.62;;
30998;SDS011;20549;50.042;8.968;2023-08-06T08:54:53;1.60;;;0.40;;
30998;SDS011;20549;50.042;8.968;2023-08-06T08:57:20;0.40;;;0.40;;
30998;SDS011;20549;50.042;8.968;2023-08-06T08:59:46;0.42;;;0.35;;
30998;SDS011;20549;50.042;8.968;2023-08-06T09:02:13;1.85;;;0.50;;
30998;SDS011;20549;50.042;8.968;2023-08-06T09:04:39;0.37;;;0.37;;
30998;SDS011;20549;50.042;8.968;2023-08-06T09:07:06;0.50;;;0.40;;
30998;SDS011;20549;50.042;8.968;2023-08-06T09:09:33;0.53;;;0.53;;
30998;SDS011;20549;50.042;8.968;2023-08-06T09:12:02;0.33;;;0.33;;
30998;SDS011;20549;50.042;8.968;2023-08-06T09:14:28;0.40;;;0.40;;
30998;SDS011;20549;50.042;8.968;2023-08-06T09:16:56;0.55;;;0.55;;
30998;SDS011;20549;50.042;8.968;2023-08-06T09:19:22;0.45;;;0.37;;
30998;SDS011;20549;50.042;8.968;2023-08-06T09:21:50;0.53;;;0.37;;
30998;SDS011;20549;50.042;8.968;2023-08-06T09:24:15;0.33;;;0.30;;
30998;SDS011;20549;50.042;8.968;2023-08-06T09:26:43;0.82;;;0.50;;
30998;SDS011;20549;50.042;8.968;2023-08-06T09:29:09;0.45;;;0.30;;
30998;SDS011;20549;50.042;8.968;2023-08-06T09:31:48;0.42;;;0.23;;
30998;SDS011;20549;50.042;8.968;2023-08-06T09:34:17;0.70;;;0.55;;
30998;SDS011;20549;50.042;8.968;2023-08-06T09:36:46;0.33;;;0.25;;
30998;SDS011;20549;50.042;8.968;2023-08-06T09:39:13;0.20;;;0.20;;
30998;SDS011;20549;50.042;8.968;2023-08-06T09:41:39;0.13;;;0.13;;
30998;SDS011;20549;50.042;8.968;2023-08-06T09:44:12;0.37;;;0.37;;
30998;SDS011;20549;50.042;8.968;2023-08-06T09:46:32;0.13;;;0.13;;
30998;SDS011;20549;50.042;8.968;2023-08-06T09:48:59;0.17;;;0.10;;
30998;SDS011;20549;50.042;8.968;2023-08-06T09:51:26;0.20;;;0.20;;
30998;SDS011;20549;50.042;8.968;2023-08-06T09:53:52;0.30;;;0.20;;
30998;SDS011;20549;50.042;8.968;2023-08-06T09:56:19;0.10;;;0.10;;
30998;SDS011;20549;50.042;8.968;2023-08-06T09:58:45;0.20;;;0.20;;
30998;SDS011;20549;50.042;8.968;2023-08-06T10:01:12;0.10;;;0.10;;
30998;SDS011;20549;50.042;8.968;2023-08-06T10:03:39;0.10;;;0.10;;
30998;SDS011;20549;50.042;8.968;2023-08-06T10:06:05;0.10;;;0.10;;
30998;SDS011;20549;50.042;8.968;2023-08-06T10:08:32;0.00;;;0.00;;
30998;SDS011;20549;50.042;8.968;2023-08-06T10:10:58;0.10;;;0.10;;
30998;SDS011;20549;50.042;8.968;2023-08-06T10:13:25;0.08;;;0.03;;
30998;SDS011;20549;50.042;8.968;2023-08-06T10:15:51;1.55;;;0.20;;
30998;SDS011;20549;50.042;8.968;2023-08-06T10:18:18;0.23;;;0.20;;
30998;SDS011;20549;50.042;8.968;2023-08-06T10:20:45;0.10;;;0.10;;
30998;SDS011;20549;50.042;8.968;2023-08-06T10:23:11;0.10;;;0.10;;
30998;SDS011;20549;50.042;8.968;2023-08-06T10:25:41;0.20;;;0.20;;
30998;SDS011;20549;50.042;8.968;2023-08-06T10:28:10;0.20;;;0.10;;
30998;SDS011;20549;50.042;8.968;2023-08-06T10:30:44;0.70;;;0.40;;
30998;SDS011;20549;50.042;8.968;2023-08-06T10:33:12;0.72;;;0.10;;
30998;SDS011;20549;50.042;8.968;2023-08-06T10:35:44;0.30;;;0.30;;
30998;SDS011;20549;50.042;8.968;2023-08-06T10:38:11;0.50;;;0.30;;
30998;SDS011;20549;50.042;8.968;2023-08-06T10:40:49;0.47;;;0.40;;
30998;SDS011;20549;50.042;8.968;2023-08-06T10:43:28;0.20;;;0.20;;
30998;SDS011;20549;50.042;8.968;2023-08-06T10:45:51;0.15;;;0.15;;
30998;SDS011;20549;50.042;8.968;2023-08-06T10:48:36;0.20;;;0.20;;
30998;SDS011;20549;50.042;8.968;2023-08-06T10:51:02;0.05;;;0.05;;
30998;SDS011;20549;50.042;8.968;2023-08-06T10:53:29;0.17;;;0.17;;
30998;SDS011;20549;50.042;8.968;2023-08-06T10:55:55;0.42;;;0.30;;
30998;SDS011;20549;50.042;8.968;2023-08-06T10:58:22;0.20;;;0.20;;
30998;SDS011;20549;50.042;8.968;2023-08-06T11:00:48;0.75;;;0.47;;
30998;SDS011;20549;50.042;8.968;2023-08-06T11:03:15;0.35;;;0.35;;
30998;SDS011;20549;50.042;8.968;2023-08-06T11:05:47;0.75;;;0.40;;
30998;SDS011;20549;50.042;8.968;2023-08-06T11:08:08;4.30;;;1.20;;
30998;SDS011;20549;50.042;8.968;2023-08-06T11:10:35;0.17;;;0.17;;
30998;SDS011;20549;50.042;8.968;2023-08-06T11:13:02;0.30;;;0.20;;
30998;SDS011;20549;50.042;8.968;2023-08-06T11:15:28;0.45;;;0.20;;
30998;SDS011;20549;50.042;8.968;2023-08-06T11:17:54;0.30;;;0.30;;
30998;SDS011;20549;50.042;8.968;2023-08-06T11:20:21;0.40;;;0.20;;
30998;SDS011;20549;50.042;8.968;2023-08-06T11:22:50;0.40;;;0.40;;
30998;SDS011;20549;50.042;8.968;2023-08-06T11:25:19;0.40;;;0.40;;
30998;SDS011;20549;50.042;8.968;2023-08-06T11:27:44;0.40;;;0.30;;
30998;SDS011;20549;50.042;8.968;2023-08-06T11:30:10;0.40;;;0.40;;
30998;SDS011;20549;50.042;8.968;2023-08-06T11:32:46;0.30;;;0.30;;
30998;SDS011;20549;50.042;8.968;2023-08-06T11:35:12;0.20;;;0.13;;
30998;SDS011;20549;50.042;8.968;2023-08-06T11:37:39;0.10;;;0.10;;
30998;SDS011;20549;50.042;8.968;2023-08-06T11:40:07;0.20;;;0.20;;
30998;SDS011;20549;50.042;8.968;2023-08-06T11:42:32;1.02;;;0.30;;
30998;SDS011;20549;50.042;8.968;2023-08-06T11:44:58;0.42;;;0.30;;
30998;SDS011;20549;50.042;8.968;2023-08-06T11:47:25;0.30;;;0.20;;
30998;SDS011;20549;50.042;8.968;2023-08-06T11:49:52;0.10;;;0.10;;
30998;SDS011;20549;50.042;8.968;2023-08-06T11:52:22;0.28;;;0.28;;
30998;SDS011;20549;50.042;8.968;2023-08-06T11:55:10;0.20;;;0.20;;
30998;SDS011;20549;50.042;8.968;2023-08-06T11:57:30;1.90;;;0.33;;
30998;SDS011;20549;50.042;8.968;2023-08-06T12:00:09;0.35;;;0.20;;
30998;SDS011;20549;50.042;8.968;2023-08-06T12:02:32;0.20;;;0.20;;
30998;SDS011;20549;50.042;8.968;2023-08-06T12:05:02;0.15;;;0.15;;
30998;SDS011;20549;50.042;8.968;2023-08-06T12:07:31;0.25;;;0.23;;
30998;SDS011;20549;50.042;8.968;2023-08-06T12:10:00;0.40;;;0.37;;
30998;SDS011;20549;50.042;8.968;2023-08-06T12:12:26;0.57;;;0.30;;
30998;SDS011;20549;50.042;8.968;2023-08-06T12:14:53;0.30;;;0.30;;
30998;SDS011;20549;50.042;8.968;2023-08-06T12:17:19;1.55;;;0.30;;
30998;SDS011;20549;50.042;8.968;2023-08-06T12:19:46;0.72;;;0.33;;
30998;SDS011;20549;50.042;8.968;2023-08-06T12:22:13;0.20;;;0.20;;
30998;SDS011;20549;50.042;8.968;2023-08-06T12:24:42;0.08;;;0.08;;
30998;SDS011;20549;50.042;8.968;2023-08-06T12:27:09;1.27;;;0.20;;
30998;SDS011;20549;50.042;8.968;2023-08-06T12:29:35;0.20;;;0.20;;
30998;SDS011;20549;50.042;8.968;2023-08-06T12:32:02;0.20;;;0.20;;
30998;SDS011;20549;50.042;8.968;2023-08-06T12:34:34;0.10;;;0.10;;
30998;SDS011;20549;50.042;8.968;2023-08-06T12:37:02;0.40;;;0.40;;
30998;SDS011;20549;50.042;8.968;2023-08-06T12:39:28;0.28;;;0.20;;
30998;SDS011;20549;50.042;8.968;2023-08-06T12:41:55;0.20;;;0.20;;
30998;SDS011;20549;50.042;8.968;2023-08-06T12:44:21;0.30;;;0.30;;
30998;SDS011;20549;50.042;8.968;2023-08-06T12:46:47;0.15;;;0.15;;
30998;SDS011;20549;50.042;8.968;2023-08-06T12:49:14;0.35;;;0.35;;
30998;SDS011;20549;50.042;8.968;2023-08-06T12:51:41;0.45;;;0.35;;
30998;SDS011;20549;50.042;8.968;2023-08-06T12:54:07;0.50;;;0.50;;
30998;SDS011;20549;50.042;8.968;2023-08-06T12:56:34;0.90;;;0.50;;
30998;SDS011;20549;50.042;8.968;2023-08-06T12:59:00;0.28;;;0.28;;
30998;SDS011;20549;50.042;8.968;2023-08-06T13:01:27;0.98;;;0.40;;
30998;SDS011;20549;50.042;8.968;2023-08-06T13:03:53;0.35;;;0.35;;
30998;SDS011;20549;50.042;8.968;2023-08-06T13:06:20;0.78;;;0.50;;
30998;SDS011;20549;50.042;8.968;2023-08-06T13:08:47;0.40;;;0.30;;
30998;SDS011;20549;50.042;8.968;2023-08-06T13:11:13;0.25;;;0.25;;
30998;SDS011;20549;50.042;8.968;2023-08-06T13:13:40;0.42;;;0.42;;
30998;SDS011;20549;50.042;8.968;2023-08-06T13:16:06;0.28;;;0.28;;
30998;SDS011;20549;50.042;8.968;2023-08-06T13:18:33;0.30;;;0.30;;
30998;SDS011;20549;50.042;8.968;2023-08-06T13:21:00;0.60;;;0.60;;
30998;SDS011;20549;50.042;8.968;2023-08-06T13:23:26;1.30;;;1.00;;
30998;SDS011;20549;50.042;8.968;2023-08-06T13:25:53;1.25;;;1.00;;
30998;SDS011;20549;50.042;8.968;2023-08-06T13:28:19;1.60;;;0.78;;
30998;SDS011;20549;50.042;8.968;2023-08-06T13:30:46;0.85;;;0.80;;
30998;SDS011;20549;50.042;8.968;2023-08-06T13:33:13;0.53;;;0.53;;
30998;SDS011;20549;50.042;8.968;2023-08-06T13:35:39;0.80;;;0.53;;
30998;SDS011;20549;50.042;8.968;2023-08-06T13:38:06;0.47;;;0.30;;
30998;SDS011;20549;50.042;8.968;2023-08-06T13:40:32;0.50;;;0.47;;
30998;SDS011;20549;50.042;8.968;2023-08-06T13:42:59;0.28;;;0.28;;
30998;SDS011;20549;50.042;8.968;2023-08-06T13:45:25;0.53;;;0.50;;
30998;SDS011;20549;50.042;8.968;2023-08-06T13:47:52;0.88;;;0.40;;
30998;SDS011;20549;50.042;8.968;2023-08-06T13:50:19;0.50;;;0.50;;
30998;SDS011;20549;50.042;8.968;2023-08-06T13:52:45;1.25;;;0.95;;
30998;SDS011;20549;50.042;8.968;2023-08-06T13:55:12;1.05;;;0.72;;
30998;SDS011;20549;50.042;8.968;2023-08-06T13:57:38;0.68;;;0.68;;
30998;SDS011;20549;50.042;8.968;2023-08-06T14:00:05;0.40;;;0.40;;
30998;SDS011;20549;50.042;8.968;2023-08-06T14:02:32;0.80;;;0.65;;
30998;SDS011;20549;50.042;8.968;2023-08-06T14:04:58;1.37;;;0.60;;
30998;SDS011;20549;50.042;8.968;2023-08-06T14:07:25;0.75;;;0.60;;
30998;SDS011;20549;50.042;8.968;2023-08-06T14:09:52;0.65;;;0.65;;
30998;SDS011;20549;50.042;8.968;2023-08-06T14:12:18;0.42;;;0.42;;
30998;SDS011;20549;50.042;8.968;2023-08-06T14:14:45;0.50;;;0.47;;
30998;SDS011;20549;50.042;8.968;2023-08-06T14:17:11;0.75;;;0.53;;
30998;SDS011;20549;50.042;8.968;2023-08-06T14:19:38;0.60;;;0.60;;
30998;SDS011;20549;50.042;8.968;2023-08-06T14:22:05;0.60;;;0.60;;
30998;SDS011;20549;50.042;8.968;2023-08-06T14:24:31;0.50;;;0.50;;
30998;SDS011;20549;50.042;8.968;2023-08-06T14:26:58;0.55;;;0.37;;
30998;SDS011;20549;50.042;8.968;2023-08-06T14:29:24;1.55;;;0.50;;
30998;SDS011;20549;50.042;8.968;2023-08-06T14:31:51;0.85;;;0.70;;
30998;SDS011;20549;50.042;8.968;2023-08-06T14:34:17;0.85;;;0.70;;
30998;SDS011;20549;50.042;8.968;2023-08-06T14:36:44;0.70;;;0.70;;
30998;SDS011;20549;50.042;8.968;2023-08-06T14:39:11;0.30;;;0.30;;
30998;SDS011;20549;50.042;8.968;2023-08-06T14:41:37;1.20;;;0.60;;
30998;SDS011;20549;50.042;8.968;2023-08-06T14:44:04;1.95;;;0.65;;
30998;SDS011;20549;50.042;8.968;2023-08-06T14:46:30;0.65;;;0.62;;
30998;SDS011;20549;50.042;8.968;2023-08-06T14:48:57;0.68;;;0.68;;